Time;durP1;ratioP1;P1;durP2;ratioP2;P2;SDS_P1;SDS_P2;PMS_P1;PMS_P2;Temp;Humidity;BMP_temperature;BMP_pressure;BME280_temperature;BME280_humidity;BME280_pressure;Samples;Min_cycle;Max_cycle;Signal;HPM_P1;HPM_P2
2023/08/04 00:00:06;;;;;;;3.13;1.63;;;18.90;99.90;;;;;;2585657;54;20030;31
2023/08/04 00:02:41;;;;;;;3.80;1.30;;;18.90;99.90;;;;;;2604252;46;20061;31
2023/08/04 00:05:17;;;;;;;5.50;1.35;;;18.80;99.90;;;;;;2586002;54;20654;31
2023/08/04 00:07:49;;;;;;;4.13;1.05;;;18.70;99.90;;;;;;2585941;54;20042;31
2023/08/04 00:10:21;;;;;;;4.72;1.17;;;18.70;99.90;;;;;;2585832;54;20090;31
2023/08/04 00:12:55;;;;;;;3.60;1.30;;;18.60;99.90;;;;;;2585790;54;20101;31
2023/08/04 00:15:27;;;;;;;8.73;1.30;;;18.60;99.90;;;;;;2585778;54;20064;31
2023/08/04 00:17:59;;;;;;;4.88;1.00;;;18.60;99.90;;;;;;2586023;54;20934;31
2023/08/04 00:20:37;;;;;;;5.45;1.00;;;18.60;99.90;;;;;;2585981;54;20848;31
2023/08/04 00:23:12;;;;;;;4.33;1.50;;;18.60;99.90;;;;;;2585803;54;20026;31
2023/08/04 00:25:44;;;;;;;3.17;1.20;;;18.60;99.90;;;;;;2585562;54;21286;31
2023/08/04 00:28:19;;;;;;;2.05;1.13;;;18.50;99.90;;;;;;2585829;54;20777;31
2023/08/04 00:30:51;;;;;;;3.35;1.48;;;18.50;99.90;;;;;;2585386;54;20113;31
2023/08/04 00:33:24;;;;;;;4.65;1.25;;;18.50;99.90;;;;;;2585615;54;20054;31
2023/08/04 00:36:02;;;;;;;4.57;1.33;;;18.50;99.90;;;;;;2585866;54;20026;31
2023/08/04 00:38:39;;;;;;;2.38;0.90;;;18.50;99.90;;;;;;2585802;54;20750;31
2023/08/04 00:41:14;;;;;;;5.88;1.00;;;18.50;99.90;;;;;;2585714;54;20122;31
2023/08/04 00:43:46;;;;;;;3.75;1.42;;;18.40;99.90;;;;;;2585893;54;20026;31
2023/08/04 00:46:20;;;;;;;3.22;0.80;;;18.40;99.90;;;;;;2585668;54;20131;31
2023/08/04 00:48:52;;;;;;;2.78;1.20;;;18.40;99.90;;;;;;2602007;47;21014;31
2023/08/04 00:51:28;;;;;;;2.53;0.90;;;18.30;99.90;;;;;;2585384;54;20026;31
2023/08/04 00:54:01;;;;;;;6.32;1.10;;;18.30;99.90;;;;;;2585240;54;20096;31
2023/08/04 00:56:34;;;;;;;2.55;0.75;;;18.30;99.90;;;;;;2586568;54;19941;31
2023/08/04 00:59:09;;;;;;;3.63;1.10;;;18.30;99.90;;;;;;2586443;54;20490;31
2023/08/04 01:01:43;;;;;;;3.00;1.10;;;18.20;99.90;;;;;;2605217;46;20038;31
2023/08/04 01:04:17;;;;;;;2.95;0.90;;;18.20;99.90;;;;;;2586481;54;21666;31
2023/08/04 01:07:02;;;;;;;4.80;0.80;;;18.20;99.90;;;;;;2586504;54;20026;31
2023/08/04 01:09:38;;;;;;;4.43;0.95;;;18.20;99.90;;;;;;2586308;54;20891;31
2023/08/04 01:12:10;;;;;;;2.45;0.60;;;18.20;99.90;;;;;;2586648;54;20875;31
2023/08/04 01:14:44;;;;;;;2.90;0.88;;;18.20;99.90;;;;;;2592342;46;20147;31
2023/08/04 01:17:38;;;;;;;3.77;1.00;;;18.20;99.90;;;;;;2599298;46;20029;31
2023/08/04 01:20:13;;;;;;;2.97;1.05;;;18.10;99.90;;;;;;2587248;54;20972;31
2023/08/04 01:22:48;;;;;;;3.97;0.82;;;18.10;99.90;;;;;;2773020;31;21223;31
2023/08/04 01:25:20;;;;;;;1.80;0.73;;;18.10;99.90;;;;;;2586457;54;20656;31
2023/08/04 01:27:55;;;;;;;5.27;1.20;;;18.10;99.90;;;;;;2586474;54;20763;31
2023/08/04 01:30:28;;;;;;;2.70;1.13;;;18.10;99.90;;;;;;2586459;54;20938;31
2023/08/04 01:33:01;;;;;;;3.05;0.93;;;18.00;99.90;;;;;;2586539;54;20030;31
2023/08/04 01:35:33;;;;;;;4.35;1.00;;;18.00;99.90;;;;;;2586167;54;20871;31
2023/08/04 01:38:09;;;;;;;2.70;0.82;;;18.00;99.90;;;;;;2702768;39;20367;31
2023/08/04 01:40:43;;;;;;;2.80;0.90;;;18.00;99.90;;;;;;2586276;54;20897;31
2023/08/04 01:43:18;;;;;;;3.65;0.95;;;18.00;99.90;;;;;;2586219;54;20157;31
2023/08/04 01:45:50;;;;;;;2.30;0.90;;;18.00;99.90;;;;;;2586207;54;20093;31
2023/08/04 01:48:22;;;;;;;2.42;0.70;;;17.90;99.90;;;;;;2586625;54;20775;31
2023/08/04 01:50:54;;;;;;;6.73;2.17;;;17.90;99.90;;;;;;2586035;54;21326;31
2023/08/04 01:53:31;;;;;;;2.70;0.63;;;17.90;99.90;;;;;;2586466;54;20031;31
2023/08/04 01:56:05;;;;;;;2.55;0.70;;;17.90;99.90;;;;;;2586239;54;19942;31
2023/08/04 01:58:43;;;;;;;4.60;0.85;;;17.90;99.90;;;;;;2586198;54;20149;31
2023/08/04 02:01:16;;;;;;;2.13;1.23;;;17.90;99.90;;;;;;2586260;54;20893;31
2023/08/04 02:03:51;;;;;;;2.85;0.80;;;17.80;99.90;;;;;;2604737;46;20032;31
2023/08/04 02:06:24;;;;;;;1.55;0.50;;;17.80;99.90;;;;;;2585833;54;20038;31
2023/08/04 02:08:59;;;;;;;2.97;0.67;;;17.80;99.90;;;;;;2586235;54;20751;31
2023/08/04 02:11:31;;;;;;;3.43;0.60;;;17.80;99.90;;;;;;2586235;54;20863;31
2023/08/04 02:14:03;;;;;;;1.87;0.60;;;17.80;99.90;;;;;;2604991;46;20255;31
2023/08/04 02:16:35;;;;;;;4.60;0.95;;;17.80;99.90;;;;;;2683636;39;21439;31
2023/08/04 02:19:08;;;;;;;2.13;0.40;;;17.80;99.90;;;;;;2586566;54;20899;31
2023/08/04 02:21:40;;;;;;;2.25;0.52;;;17.90;99.90;;;;;;2586337;54;20093;31
2023/08/04 02:24:16;;;;;;;3.40;0.80;;;17.90;99.90;;;;;;2684305;39;21510;31
2023/08/04 02:26:49;;;;;;;1.30;0.60;;;17.80;99.90;;;;;;2586257;54;20030;31
2023/08/04 02:29:22;;;;;;;3.65;0.50;;;17.80;99.90;;;;;;2604956;46;20073;31
2023/08/04 02:31:56;;;;;;;2.33;1.03;;;17.80;99.90;;;;;;2586155;54;20840;31
2023/08/04 02:34:28;;;;;;;2.03;0.60;;;17.80;99.90;;;;;;2586063;54;20869;31
2023/08/04 02:37:03;;;;;;;2.50;0.50;;;17.80;99.90;;;;;;2586570;54;20057;31
2023/08/04 02:39:38;;;;;;;3.40;0.60;;;17.80;99.90;;;;;;2586196;54;20036;31
2023/08/04 02:42:14;;;;;;;1.63;0.52;;;17.80;99.90;;;;;;2586459;54;20120;31
2023/08/04 02:44:47;;;;;;;2.33;0.52;;;17.80;99.90;;;;;;2585911;54;20504;31
2023/08/04 02:47:20;;;;;;;3.53;0.65;;;17.80;99.90;;;;;;2585994;54;20103;31
2023/08/04 02:49:52;;;;;;;1.75;0.90;;;17.80;99.90;;;;;;2585957;54;20746;31
2023/08/04 02:52:26;;;;;;;3.15;0.70;;;17.80;99.90;;;;;;2586199;54;20496;31
2023/08/04 02:55:01;;;;;;;2.15;0.82;;;17.80;99.90;;;;;;2585816;54;19934;31
2023/08/04 02:57:35;;;;;;;3.30;0.57;;;17.80;99.90;;;;;;2585990;54;20166;31
2023/08/04 03:00:11;;;;;;;1.25;0.40;;;17.80;99.90;;;;;;2586068;54;20529;31
2023/08/04 03:02:45;;;;;;;1.80;0.50;;;17.80;99.90;;;;;;2586156;54;20524;31
2023/08/04 03:05:17;;;;;;;1.20;0.30;;;17.80;99.90;;;;;;2586343;54;20750;31
2023/08/04 03:07:54;;;;;;;2.10;0.35;;;17.90;99.90;;;;;;2604226;46;20027;31
2023/08/04 03:10:31;;;;;;;2.47;0.50;;;17.80;99.90;;;;;;2585964;54;20027;31
2023/08/04 03:13:03;;;;;;;0.85;0.40;;;17.80;99.90;;;;;;2586134;54;20042;31
2023/08/04 03:15:36;;;;;;;1.08;0.32;;;17.80;99.90;;;;;;2604499;46;20057;31
2023/08/04 03:18:08;;;;;;;3.07;0.33;;;17.80;99.90;;;;;;2585857;54;20057;31
2023/08/04 03:20:41;;;;;;;2.00;0.50;;;17.90;99.90;;;;;;2604673;46;20860;31
2023/08/04 03:23:15;;;;;;;2.03;0.35;;;17.90;99.90;;;;;;2604505;46;20026;31
2023/08/04 03:25:50;;;;;;;2.43;0.50;;;17.90;99.90;;;;;;2604561;46;20001;31
2023/08/04 03:28:23;;;;;;;3.40;0.55;;;17.90;99.90;;;;;;2585865;54;20663;31
2023/08/04 03:30:58;;;;;;;3.55;0.73;;;17.90;99.90;;;;;;2603968;46;20868;31
2023/08/04 03:33:31;;;;;;;;;;;17.90;99.90;;;;;;2586170;54;20035;31
2023/08/04 03:36:05;;;;;;;1.45;0.60;;;17.90;99.90;;;;;;2603987;46;19942;31
2023/08/04 03:38:37;;;;;;;1.83;0.67;;;17.90;99.90;;;;;;2585610;54;20053;31
2023/08/04 03:41:15;;;;;;;3.55;1.00;;;17.80;99.90;;;;;;2585978;54;21104;31
2023/08/04 03:43:47;;;;;;;1.80;0.65;;;17.80;99.90;;;;;;2585845;54;20034;31
2023/08/04 03:46:20;;;;;;;2.53;0.90;;;17.80;99.90;;;;;;2586239;54;20042;31
2023/08/04 03:48:53;;;;;;;1.75;0.60;;;17.70;99.90;;;;;;2754785;31;21399;31
2023/08/04 03:51:26;;;;;;;5.07;1.20;;;17.60;99.90;;;;;;2585938;54;20930;31
2023/08/04 03:53:59;;;;;;;3.60;0.65;;;17.60;99.90;;;;;;2585955;54;20033;31
2023/08/04 03:56:36;;;;;;;4.45;1.10;;;17.60;99.90;;;;;;2585878;54;20871;31
2023/08/04 03:59:11;;;;;;;3.23;1.10;;;17.60;99.90;;;;;;2585863;54;20029;31
2023/08/04 04:01:48;;;;;;;3.33;0.90;;;17.60;99.90;;;;;;2585950;54;20731;31
2023/08/04 04:04:28;;;;;;;3.40;0.95;;;17.60;99.90;;;;;;2585770;54;20031;31
2023/08/04 04:07:01;;;;;;;4.45;1.10;;;17.50;99.90;;;;;;2585871;54;20033;31
2023/08/04 04:09:39;;;;;;;3.23;0.63;;;17.50;99.90;;;;;;2604451;46;20854;31
2023/08/04 04:12:22;;;;;;;3.20;0.68;;;17.50;99.90;;;;;;2585181;54;20852;31
2023/08/04 04:15:00;;;;;;;2.75;0.90;;;17.50;99.90;;;;;;2593208;46;20042;31
2023/08/04 04:17:33;;;;;;;2.25;0.65;;;17.50;99.90;;;;;;2604496;46;20811;31
2023/08/04 04:20:13;;;;;;;3.80;0.70;;;17.50;99.90;;;;;;2683523;39;20635;31
2023/08/04 04:22:49;;;;;;;5.60;0.80;;;17.50;99.90;;;;;;2585887;54;21006;31
2023/08/04 04:25:24;;;;;;;2.63;1.23;;;17.50;99.90;;;;;;2585809;54;20854;31
2023/08/04 04:28:03;;;;;;;3.00;1.20;;;17.60;99.90;;;;;;2585851;54;20031;31
2023/08/04 04:30:37;;;;;;;2.73;0.80;;;17.60;99.90;;;;;;2584700;54;20924;31
2023/08/04 04:33:12;;;;;;;1.95;0.80;;;17.60;99.90;;;;;;2603645;46;20030;31
2023/08/04 04:35:53;;;;;;;2.20;0.90;;;17.70;99.90;;;;;;2585635;54;20035;31
2023/08/04 04:38:29;;;;;;;3.63;0.70;;;17.70;99.90;;;;;;2604099;47;20053;31
2023/08/04 04:41:06;;;;;;;2.33;1.10;;;17.70;99.90;;;;;;2585479;54;20038;31
2023/08/04 04:43:46;;;;;;;4.03;0.70;;;17.80;99.90;;;;;;2584741;54;20037;31
2023/08/04 04:46:19;;;;;;;3.67;0.88;;;17.80;99.90;;;;;;2585618;54;20381;31
2023/08/04 04:48:56;;;;;;;2.95;0.73;;;17.90;99.90;;;;;;2585002;54;20093;31
2023/08/04 04:51:32;;;;;;;3.03;0.95;;;17.90;99.90;;;;;;2754356;31;21722;31
2023/08/04 04:54:07;;;;;;;4.35;0.80;;;17.90;99.90;;;;;;2585641;54;20113;31
2023/08/04 04:56:42;;;;;;;3.13;1.00;;;18.00;99.90;;;;;;2585160;54;20883;31
2023/08/04 04:59:20;;;;;;;2.28;0.73;;;18.10;99.90;;;;;;2585644;54;20125;31
2023/08/04 05:02:00;;;;;;;3.40;0.90;;;18.10;99.90;;;;;;2585561;54;20027;31
2023/08/04 05:04:51;;;;;;;3.95;0.90;;;18.10;99.90;;;;;;2683536;39;21547;31
2023/08/04 05:07:27;;;;;;;3.47;1.10;;;18.10;99.90;;;;;;2604422;47;20882;31
2023/08/04 05:10:04;;;;;;;1.55;0.60;;;18.10;99.90;;;;;;2595095;46;20950;31
2023/08/04 05:12:38;;;;;;;;;;;18.20;99.90;;;;;;2585686;54;20026;31
2023/08/04 05:15:19;;;;;;;3.30;0.80;;;18.20;99.90;;;;;;2585665;54;20816;31
2023/08/04 05:17:55;;;;;;;1.52;0.70;;;18.30;99.90;;;;;;2604320;47;21051;31
2023/08/04 05:20:34;;;;;;;6.45;0.90;;;18.30;99.90;;;;;;2585641;54;20954;31
2023/08/04 05:23:09;;;;;;;14.40;2.75;;;18.30;99.90;;;;;;2604154;47;21827;31
2023/08/04 05:28:43;;;;;;;10.35;1.95;;;18.40;99.90;;;;;;2682808;39;22349;31
2023/08/04 05:31:20;;;;;;;13.20;1.60;;;18.40;99.90;;;;;;2585503;54;20037;31
2023/08/04 05:33:56;;;;;;;7.75;0.90;;;18.50;99.90;;;;;;2585428;54;20034;31
2023/08/04 05:36:31;;;;;;;2.55;0.85;;;18.50;99.90;;;;;;2585654;54;20054;31
2023/08/04 05:39:07;;;;;;;4.97;1.27;;;18.50;99.90;;;;;;2585647;54;20026;31
2023/08/04 05:41:44;;;;;;;3.92;0.70;;;18.60;99.90;;;;;;2586255;54;20062;31
2023/08/04 05:44:24;;;;;;;3.17;0.60;;;18.70;99.90;;;;;;2605171;46;20862;31
2023/08/04 05:47:02;;;;;;;3.53;0.90;;;18.70;99.90;;;;;;2586328;54;20878;31
2023/08/04 05:49:39;;;;;;;5.77;0.70;;;18.80;99.90;;;;;;2586615;54;20027;31
2023/08/04 05:52:16;;;;;;;3.28;0.73;;;18.80;99.90;;;;;;2604858;46;20880;31
2023/08/04 05:54:51;;;;;;;4.72;1.02;;;19.00;99.90;;;;;;2586474;54;20105;31
2023/08/04 05:57:25;;;;;;;1.55;0.60;;;19.00;99.90;;;;;;2586283;54;20030;31
2023/08/04 06:00:05;;;;;;;3.33;0.70;;;19.10;99.90;;;;;;2586288;54;20132;31
2023/08/04 06:02:43;;;;;;;5.05;1.05;;;19.20;99.90;;;;;;2586364;54;20729;31
2023/08/04 06:05:26;;;;;;;2.20;0.75;;;19.40;99.90;;;;;;2585426;54;20022;31
2023/08/04 06:08:02;;;;;;;5.50;0.98;;;19.50;99.90;;;;;;2585240;54;20924;31
2023/08/04 06:10:39;;;;;;;3.78;1.05;;;19.60;99.90;;;;;;2586275;54;20026;31
2023/08/04 06:13:13;;;;;;;4.32;0.75;;;19.70;99.90;;;;;;2586169;54;20046;31
2023/08/04 06:15:47;;;;;;;5.47;0.98;;;19.70;99.90;;;;;;2586216;54;20900;31
2023/08/04 06:18:31;;;;;;;2.63;0.90;;;19.80;99.90;;;;;;2586234;54;20093;31
2023/08/04 06:21:05;;;;;;;4.20;1.13;;;19.90;99.90;;;;;;2586229;54;21244;31
2023/08/04 06:23:45;;;;;;;6.65;0.90;;;20.10;99.90;;;;;;2584959;54;20181;31
2023/08/04 06:26:24;;;;;;;2.30;0.75;;;20.30;99.90;;;;;;2586011;54;20028;31
2023/08/04 06:29:07;;;;;;;4.10;0.70;;;20.70;99.90;;;;;;2604657;46;20046;31
2023/08/04 06:31:43;;;;;;;2.97;0.68;;;21.40;99.90;;;;;;2586277;54;20925;31
2023/08/04 06:34:21;;;;;;;2.72;0.60;;;21.70;99.90;;;;;;2586238;54;20867;31
2023/08/04 06:36:56;;;;;;;2.47;0.52;;;21.90;99.90;;;;;;2586262;54;20038;31
2023/08/04 06:39:33;;;;;;;3.25;0.50;;;22.00;99.90;;;;;;2604766;46;20868;31
2023/08/04 06:42:11;;;;;;;1.40;0.52;;;22.00;99.90;;;;;;2586313;54;20026;31
2023/08/04 06:44:46;;;;;;;1.60;0.35;;;22.10;99.90;;;;;;2585722;54;20022;31
2023/08/04 06:47:21;;;;;;;3.20;0.80;;;22.10;99.90;;;;;;2585312;54;20917;31
2023/08/04 06:50:03;;;;;;;5.20;0.50;;;22.20;99.90;;;;;;2602062;46;20852;31
2023/08/04 06:52:37;;;;;;;2.25;0.30;;;22.10;99.90;;;;;;2586328;54;20968;31
2023/08/04 06:55:12;;;;;;;;;;;22.20;99.90;;;;;;2596178;46;20026;31
2023/08/04 06:57:48;;;;;;;3.28;0.90;;;22.30;99.90;;;;;;2585986;54;20025;31
2023/08/04 07:00:30;;;;;;;2.35;0.50;;;22.40;99.90;;;;;;2586423;54;20924;31
2023/08/04 07:03:04;;;;;;;2.17;0.40;;;22.50;99.90;;;;;;2586486;54;20054;31
2023/08/04 07:05:45;;;;;;;4.75;0.95;;;22.70;99.90;;;;;;2585568;54;20038;31
2023/08/04 07:08:22;;;;;;;1.45;0.40;;;23.10;99.90;;;;;;2586268;54;20694;31
2023/08/04 07:13:37;;;;;;;3.87;0.70;;;24.10;99.90;;;;;;2585592;54;20035;31
2023/08/04 07:16:13;;;;;;;4.35;0.50;;;24.40;99.90;;;;;;2683026;39;21794;31
2023/08/04 07:18:49;;;;;;;0.98;0.35;;;24.80;99.90;;;;;;2585237;54;20029;31
2023/08/04 07:21:29;;;;;;;2.45;0.40;;;25.10;99.90;;;;;;2585300;54;20030;31
2023/08/04 07:24:06;;;;;;;3.20;0.40;;;25.40;99.90;;;;;;2586405;54;20764;31
2023/08/04 07:26:40;;;;;;;1.07;0.37;;;25.70;99.90;;;;;;2585956;54;20027;31
2023/08/04 07:29:16;;;;;;;1.20;0.20;;;26.00;99.90;;;;;;2586024;54;20031;31
2023/08/04 07:31:48;;;;;;;2.10;0.50;;;26.30;99.90;;;;;;2586255;54;20032;31
2023/08/04 07:34:24;;;;;;;1.08;0.40;;;26.50;99.90;;;;;;2683783;39;20499;31
2023/08/04 07:37:03;;;;;;;1.73;0.60;;;26.70;99.90;;;;;;2585886;54;20859;31
2023/08/04 07:39:43;;;;;;;3.08;0.52;;;27.10;99.90;;;;;;2586202;54;20855;31
2023/08/04 07:42:16;;;;;;;2.25;0.75;;;27.10;99.90;;;;;;2585839;54;20026;31
2023/08/04 07:44:52;;;;;;;3.60;0.50;;;27.20;99.90;;;;;;2602170;46;20053;31
2023/08/04 07:47:26;;;;;;;1.33;0.50;;;27.40;99.90;;;;;;2604362;46;20026;31
2023/08/04 07:50:06;;;;;;;3.30;0.57;;;27.40;99.90;;;;;;2585113;54;20837;31
2023/08/04 07:52:44;;;;;;;2.58;0.38;;;27.40;99.90;;;;;;2689751;39;21286;31
2023/08/04 07:55:27;;;;;;;2.17;0.50;;;27.30;99.90;;;;;;2585470;54;20022;31
2023/08/04 07:58:03;;;;;;;1.60;0.45;;;27.00;99.90;;;;;;2604410;46;20029;31
2023/08/04 08:00:40;;;;;;;2.30;0.40;;;26.80;99.90;;;;;;2585463;54;20027;31
2023/08/04 08:03:20;;;;;;;0.85;0.40;;;26.80;99.90;;;;;;2604315;46;21298;31
2023/08/04 08:05:55;;;;;;;3.30;0.60;;;26.70;99.90;;;;;;2604423;47;20105;31
2023/08/04 08:08:34;;;;;;;2.35;0.40;;;26.60;99.90;;;;;;2604170;46;20893;31
2023/08/04 08:13:43;;;;;;;0.50;0.30;;;27.00;99.90;;;;;;2585508;54;20165;31
2023/08/04 08:16:19;;;;;;;1.70;0.30;;;27.00;99.90;;;;;;2585380;54;21299;31
2023/08/04 08:18:53;;;;;;;3.53;0.63;;;27.10;99.90;;;;;;2604179;46;21199;31
2023/08/04 08:21:30;;;;;;;1.97;0.30;;;27.20;99.90;;;;;;2585619;54;20891;31
2023/08/04 08:24:09;;;;;;;0.55;0.20;;;27.50;99.90;;;;;;2585755;54;20901;31
2023/08/04 08:26:44;;;;;;;1.40;0.20;;;27.70;99.90;;;;;;2585709;54;20890;31
2023/08/04 08:29:20;;;;;;;1.25;0.43;;;27.90;99.90;;;;;;2604436;46;21289;31
2023/08/04 08:31:56;;;;;;;2.15;0.80;;;28.20;99.90;;;;;;2585917;54;20113;31
2023/08/04 08:34:32;;;;;;;1.52;0.30;;;28.10;99.90;;;;;;2585628;54;20060;31
2023/08/04 08:37:10;;;;;;;1.50;0.50;;;28.00;99.90;;;;;;2586053;47;20031;31
2023/08/04 08:39:49;;;;;;;1.10;0.30;;;28.10;99.90;;;;;;2585134;54;20909;31
2023/08/04 08:42:28;;;;;;;1.65;0.40;;;28.20;99.90;;;;;;2586028;54;20886;31
2023/08/04 08:45:01;;;;;;;1.27;0.22;;;27.90;99.90;;;;;;2702141;39;20420;31
2023/08/04 08:47:40;;;;;;;2.20;0.35;;;28.10;99.90;;;;;;2584976;54;20168;31
2023/08/04 08:50:19;;;;;;;1.52;0.40;;;28.50;99.90;;;;;;2683414;39;21546;31
2023/08/04 08:52:54;;;;;;;1.20;0.40;;;28.60;99.90;;;;;;2585768;54;20106;31
2023/08/04 08:55:31;;;;;;;0.70;0.40;;;28.70;99.90;;;;;;2585472;54;20045;31
2023/08/04 08:58:04;;;;;;;1.10;0.30;;;28.80;99.90;;;;;;2585417;54;20880;31
2023/08/04 09:00:40;;;;;;;1.05;0.30;;;28.90;99.90;;;;;;2683147;39;20369;31
2023/08/04 09:03:13;;;;;;;1.50;0.40;;;29.20;99.90;;;;;;2585571;54;20037;31
2023/08/04 09:05:47;;;;;;;2.43;0.50;;;29.40;99.90;;;;;;2585540;54;20026;31
2023/08/04 09:08:23;;;;;;;0.95;0.35;;;29.70;99.90;;;;;;2585947;54;21439;31
2023/08/04 09:10:59;;;;;;;0.73;0.33;;;29.80;99.90;;;;;;2585776;54;20058;31
2023/08/04 09:13:35;;;;;;;1.10;0.50;;;30.00;99.90;;;;;;2604595;47;20707;31
2023/08/04 09:16:12;;;;;;;2.05;0.40;;;29.80;99.80;;;;;;2684064;39;20472;31
2023/08/04 09:18:46;;;;;;;4.88;0.38;;;29.60;99.50;;;;;;2586515;54;20876;31
2023/08/04 09:21:18;;;;;;;1.55;0.32;;;29.50;99.70;;;;;;2586518;54;21222;31
2023/08/04 09:23:54;;;;;;;0.57;0.20;;;29.40;99.90;;;;;;2591939;46;20027;31
2023/08/04 09:26:31;;;;;;;2.53;0.40;;;29.30;99.90;;;;;;2586577;54;20230;31
2023/08/04 09:29:07;;;;;;;4.07;0.47;;;29.40;99.60;;;;;;2605014;46;20253;31
2023/08/04 09:31:41;;;;;;;2.00;0.30;;;29.70;99.60;;;;;;2586237;54;20750;31
2023/08/04 09:34:15;;;;;;;2.63;0.40;;;29.90;99.90;;;;;;2586367;54;20714;31
2023/08/04 09:36:49;;;;;;;1.00;0.30;;;30.10;99.30;;;;;;2586319;54;20030;31
2023/08/04 09:39:26;;;;;;;2.13;0.50;;;30.20;97.70;;;;;;2586365;54;20051;31
2023/08/04 09:42:01;;;;;;;3.97;0.32;;;30.10;98.10;;;;;;2586392;54;20269;31
2023/08/04 09:44:36;;;;;;;;;;;29.70;98.20;;;;;;2586589;54;20029;31
2023/08/04 09:47:12;;;;;;;1.63;0.47;;;29.70;98.20;;;;;;2604976;46;19941;31
2023/08/04 09:49:45;;;;;;;0.70;0.40;;;29.50;97.30;;;;;;2586359;54;21035;31
2023/08/04 09:52:22;;;;;;;2.22;0.45;;;29.50;97.70;;;;;;2586239;54;20089;31
2023/08/04 09:54:57;;;;;;;0.40;0.20;;;29.60;97.50;;;;;;2586363;54;20018;31
2023/08/04 09:57:31;;;;;;;;;;;29.70;97.50;;;;;;2591804;46;20828;31
2023/08/04 10:00:05;;;;;;;1.38;0.30;;;29.90;96.90;;;;;;2586690;54;19939;31
2023/08/04 10:02:40;;;;;;;5.32;0.40;;;30.20;96.60;;;;;;2586170;54;20817;31
2023/08/04 10:05:13;;;;;;;1.63;0.30;;;30.50;96.30;;;;;;2586741;46;20851;31
2023/08/04 10:07:48;;;;;;;2.23;0.30;;;30.70;96.40;;;;;;2586108;54;20814;31
2023/08/04 10:10:23;;;;;;;1.45;0.30;;;30.90;95.00;;;;;;2586203;54;20878;31
2023/08/04 10:13:00;;;;;;;1.75;0.57;;;31.00;94.20;;;;;;2604373;46;20909;31
2023/08/04 10:15:32;;;;;;;0.80;0.20;;;31.10;93.60;;;;;;2586206;54;20030;31
2023/08/04 10:18:08;;;;;;;3.60;0.30;;;31.10;93.40;;;;;;2586385;54;20741;31
2023/08/04 10:20:41;;;;;;;2.55;0.43;;;30.90;92.20;;;;;;2604703;46;20900;31
2023/08/04 10:23:15;;;;;;;1.65;0.30;;;30.70;92.50;;;;;;2586147;54;20046;31
2023/08/04 10:25:56;;;;;;;1.53;0.30;;;30.70;93.00;;;;;;2586268;54;20122;31
2023/08/04 10:28:38;;;;;;;1.50;0.40;;;30.70;92.40;;;;;;2585753;54;20069;31
2023/08/04 10:31:10;;;;;;;2.20;0.30;;;30.70;92.40;;;;;;2586239;54;20085;31
2023/08/04 10:33:42;;;;;;;2.30;0.20;;;30.80;92.70;;;;;;2586317;54;20385;31
2023/08/04 10:36:15;;;;;;;1.80;0.35;;;30.70;93.00;;;;;;2586179;54;20058;31
2023/08/04 10:38:53;;;;;;;0.30;0.20;;;30.80;93.20;;;;;;2586139;54;20026;31
2023/08/04 10:41:26;;;;;;;1.23;0.38;;;30.70;91.90;;;;;;2604648;46;20373;31
2023/08/04 10:44:05;;;;;;;0.50;0.20;;;30.30;92.10;;;;;;2586153;54;20776;31
2023/08/04 10:46:39;;;;;;;1.60;0.20;;;29.90;91.80;;;;;;2586216;54;20873;31
2023/08/04 10:49:12;;;;;;;3.80;0.70;;;29.60;92.60;;;;;;2586321;54;20733;31
2023/08/04 10:51:46;;;;;;;2.00;0.30;;;29.30;93.10;;;;;;2586512;54;20089;31
2023/08/04 10:54:23;;;;;;;1.85;0.30;;;29.20;93.20;;;;;;2586266;54;20748;31
2023/08/04 10:57:03;;;;;;;1.40;0.30;;;29.20;93.80;;;;;;2585810;54;20026;31
2023/08/04 10:59:43;;;;;;;1.55;0.35;;;29.30;92.80;;;;;;2586302;54;20027;31
2023/08/04 11:02:22;;;;;;;2.25;0.20;;;29.60;93.90;;;;;;2585349;54;20032;31
2023/08/04 11:05:01;;;;;;;1.75;0.25;;;29.80;93.10;;;;;;2591103;46;20761;31
2023/08/04 11:07:42;;;;;;;1.27;0.30;;;29.90;93.10;;;;;;2586215;54;20979;31
2023/08/04 11:10:28;;;;;;;0.63;0.20;;;29.90;92.80;;;;;;2684040;39;22524;31
2023/08/04 11:13:01;;;;;;;1.00;0.20;;;29.90;92.90;;;;;;2604672;46;21086;31
2023/08/04 11:15:48;;;;;;;2.20;0.30;;;29.80;92.80;;;;;;2586292;54;20026;31
2023/08/04 11:18:23;;;;;;;1.85;0.30;;;29.90;92.30;;;;;;2684057;39;20392;31
2023/08/04 11:21:03;;;;;;;1.15;0.50;;;29.80;92.70;;;;;;2589681;46;20050;31
2023/08/04 11:23:40;;;;;;;2.50;0.30;;;29.70;93.00;;;;;;2585176;54;20027;31
2023/08/04 11:26:17;;;;;;;1.15;0.30;;;29.70;93.00;;;;;;2584898;54;20257;31
2023/08/04 11:29:03;;;;;;;2.60;1.00;;;29.50;93.20;;;;;;2585030;54;20034;31
2023/08/04 11:31:47;;;;;;;3.45;0.40;;;29.30;92.50;;;;;;2584960;54;20030;31
2023/08/04 11:34:26;;;;;;;;;;;29.30;93.70;;;;;;2684294;39;20627;31
2023/08/04 11:39:56;;;;;;;2.35;0.40;;;29.40;93.90;;;;;;2586077;54;20882;31
2023/08/04 11:42:31;;;;;;;1.47;0.27;;;29.50;93.60;;;;;;2586048;54;20930;31
2023/08/04 11:45:05;;;;;;;;;;;29.50;93.70;;;;;;2586393;54;21654;31
2023/08/04 11:47:47;;;;;;;2.03;0.30;;;29.50;93.40;;;;;;2585145;54;20254;31
2023/08/04 11:50:24;;;;;;;0.60;0.20;;;29.50;93.50;;;;;;2586018;54;20032;31
2023/08/04 11:53:05;;;;;;;0.60;0.40;;;29.30;92.60;;;;;;2585764;54;20018;31
2023/08/04 11:55:41;;;;;;;0.30;0.17;;;29.30;92.40;;;;;;2604391;46;20984;31
2023/08/04 11:58:17;;;;;;;1.95;0.30;;;29.30;91.70;;;;;;2585801;54;20045;31
2023/08/04 12:00:50;;;;;;;2.50;0.30;;;29.30;92.30;;;;;;2585134;54;20034;31
2023/08/04 12:03:43;;;;;;;1.30;0.30;;;29.20;92.10;;;;;;2586320;54;20023;31
2023/08/04 12:06:20;;;;;;;1.65;0.20;;;29.20;92.90;;;;;;2585855;54;20840;31
2023/08/04 12:08:52;;;;;;;;;;;29.30;93.70;;;;;;2586004;54;20854;31
2023/08/04 12:11:26;;;;;;;1.60;0.30;;;29.20;93.20;;;;;;2604155;46;20661;31
2023/08/04 12:14:11;;;;;;;1.05;0.38;;;29.00;93.40;;;;;;2585731;54;20022;31
2023/08/04 12:16:54;;;;;;;1.50;0.28;;;28.80;93.70;;;;;;2585634;54;20855;31
2023/08/04 12:19:35;;;;;;;3.20;0.30;;;28.70;93.40;;;;;;2585493;54;20156;31
2023/08/04 12:22:12;;;;;;;1.13;0.30;;;28.50;94.20;;;;;;2696143;39;21740;31
2023/08/04 12:24:50;;;;;;;2.45;0.50;;;28.50;93.80;;;;;;2584722;54;20105;31
2023/08/04 12:27:28;;;;;;;2.15;0.50;;;28.30;93.90;;;;;;2585793;54;19998;31
2023/08/04 12:30:07;;;;;;;0.73;0.30;;;28.20;93.30;;;;;;2585799;54;20030;31
2023/08/04 12:32:41;;;;;;;1.85;0.50;;;28.10;93.80;;;;;;2585806;54;20253;31
2023/08/04 12:35:23;;;;;;;2.57;0.50;;;28.10;93.80;;;;;;2585564;54;20930;31
2023/08/04 12:38:03;;;;;;;3.35;0.40;;;28.10;93.90;;;;;;2585730;54;20843;31
2023/08/04 12:40:39;;;;;;;1.03;0.40;;;28.20;93.70;;;;;;2585629;54;20038;31
2023/08/04 12:43:19;;;;;;;1.00;0.30;;;28.30;93.80;;;;;;2604066;47;20258;31
2023/08/04 12:45:54;;;;;;;1.35;0.38;;;28.50;94.10;;;;;;2585517;54;20902;31
2023/08/04 12:48:28;;;;;;;;;;;28.50;93.50;;;;;;2586092;54;20049;31
2023/08/04 12:51:04;;;;;;;3.50;0.40;;;28.70;93.50;;;;;;2586327;54;19934;31
2023/08/04 12:53:45;;;;;;;1.23;0.40;;;28.80;93.90;;;;;;2585637;54;20862;31
2023/08/04 12:56:26;;;;;;;2.05;0.40;;;28.80;93.60;;;;;;2603435;46;21370;31
2023/08/04 12:59:08;;;;;;;1.30;0.43;;;28.90;92.90;;;;;;2586513;54;20926;31
2023/08/04 13:01:47;;;;;;;3.38;0.40;;;28.80;92.70;;;;;;2586134;54;21205;31
2023/08/04 13:04:23;;;;;;;0.52;0.30;;;28.80;92.70;;;;;;2586746;54;20100;31
2023/08/04 13:06:58;;;;;;;4.43;0.70;;;28.80;92.40;;;;;;2604939;46;20978;31
2023/08/04 13:09:39;;;;;;;4.13;0.47;;;28.80;92.90;;;;;;2605285;46;20883;31
2023/08/04 13:12:12;;;;;;;0.97;0.30;;;28.80;92.70;;;;;;2604817;46;20034;31
2023/08/04 13:14:50;;;;;;;3.15;0.50;;;28.70;92.60;;;;;;2586315;54;20381;31
2023/08/04 13:17:25;;;;;;;1.75;0.50;;;28.80;93.60;;;;;;2586491;54;20733;31
2023/08/04 13:20:01;;;;;;;1.35;0.40;;;28.80;93.20;;;;;;2586110;54;20027;31
2023/08/04 13:22:38;;;;;;;2.97;0.50;;;28.60;92.40;;;;;;2586331;54;21768;31
2023/08/04 13:25:25;;;;;;;2.45;0.40;;;28.60;93.20;;;;;;2585629;54;21068;31
2023/08/04 13:28:03;;;;;;;0.77;0.40;;;28.60;92.90;;;;;;2604801;46;21675;31
2023/08/04 13:30:37;;;;;;;2.40;0.40;;;28.60;93.80;;;;;;2605031;46;20768;31
2023/08/04 13:33:11;;;;;;;1.13;0.40;;;28.50;92.60;;;;;;2586711;54;20877;31
2023/08/04 13:35:50;;;;;;;3.50;0.47;;;28.60;93.30;;;;;;2604496;46;20952;31
2023/08/04 13:38:29;;;;;;;2.03;0.43;;;28.70;93.20;;;;;;2605142;46;20839;31
2023/08/04 13:41:09;;;;;;;0.90;0.30;;;28.80;93.70;;;;;;2585738;54;22333;31
2023/08/04 13:43:46;;;;;;;0.90;0.40;;;28.80;92.30;;;;;;2586581;54;20070;31
2023/08/04 13:46:22;;;;;;;2.42;0.40;;;28.80;92.00;;;;;;2684038;39;21445;31
2023/08/04 13:48:55;;;;;;;2.60;0.30;;;28.80;92.20;;;;;;2586413;54;20038;31
2023/08/04 13:51:30;;;;;;;0.20;0.20;;;28.80;92.10;;;;;;2586529;54;21201;31
2023/08/04 13:54:08;;;;;;;1.35;0.70;;;28.60;92.40;;;;;;2585765;54;20242;31
2023/08/04 13:56:51;;;;;;;0.40;0.30;;;28.60;92.30;;;;;;2585554;54;20211;31